sensor_id;sensor_type;location;lat;lon;timestamp;P1;durP1;ratioP1;P2;durP2;ratioP2
10315;SDS011;5203;48.976;8.306;2023-05-07T00:01:25;5.53;;;5.10;;
10315;SDS011;5203;48.976;8.306;2023-05-07T00:03:51;5.60;;;5.10;;
10315;SDS011;5203;48.976;8.306;2023-05-07T00:06:17;5.27;;;4.77;;
10315;SDS011;5203;48.976;8.306;2023-05-07T00:08:44;5.27;;;4.77;;
10315;SDS011;5203;48.976;8.306;2023-05-07T00:11:10;6.22;;;5.30;;
10315;SDS011;5203;48.976;8.306;2023-05-07T00:13:35;5.85;;;5.28;;
10315;SDS011;5203;48.976;8.306;2023-05-07T00:16:01;5.32;;;4.82;;
10315;SDS011;5203;48.976;8.306;2023-05-07T00:18:28;7.30;;;5.78;;
10315;SDS011;5203;48.976;8.306;2023-05-07T00:20:53;6.43;;;5.70;;
10315;SDS011;5203;48.976;8.306;2023-05-07T00:23:19;5.72;;;4.93;;
10315;SDS011;5203;48.976;8.306;2023-05-07T00:25:45;5.95;;;5.45;;
10315;SDS011;5203;48.976;8.306;2023-05-07T00:28:10;5.50;;;5.10;;
10315;SDS011;5203;48.976;8.306;2023-05-07T00:30:36;5.70;;;5.30;;
10315;SDS011;5203;48.976;8.306;2023-05-07T00:33:01;5.53;;;5.10;;
10315;SDS011;5203;48.976;8.306;2023-05-07T00:35:28;6.30;;;5.70;;
10315;SDS011;5203;48.976;8.306;2023-05-07T00:37:54;5.10;;;4.70;;
10315;SDS011;5203;48.976;8.306;2023-05-07T00:40:20;5.43;;;4.93;;
10315;SDS011;5203;48.976;8.306;2023-05-07T00:42:46;5.40;;;5.00;;
10315;SDS011;5203;48.976;8.306;2023-05-07T00:45:12;6.03;;;5.43;;
10315;SDS011;5203;48.976;8.306;2023-05-07T00:47:39;5.37;;;4.97;;
10315;SDS011;5203;48.976;8.306;2023-05-07T00:50:05;5.30;;;4.80;;
10315;SDS011;5203;48.976;8.306;2023-05-07T00:52:32;5.00;;;4.70;;
10315;SDS011;5203;48.976;8.306;2023-05-07T00:54:57;5.53;;;5.03;;
10315;SDS011;5203;48.976;8.306;2023-05-07T00:57:29;5.03;;;4.70;;
10315;SDS011;5203;48.976;8.306;2023-05-07T01:00:04;5.47;;;4.97;;
10315;SDS011;5203;48.976;8.306;2023-05-07T01:02:30;5.57;;;5.07;;
10315;SDS011;5203;48.976;8.306;2023-05-07T01:04:56;5.40;;;4.90;;
10315;SDS011;5203;48.976;8.306;2023-05-07T01:07:22;5.13;;;4.63;;
10315;SDS011;5203;48.976;8.306;2023-05-07T01:09:48;5.20;;;4.80;;
10315;SDS011;5203;48.976;8.306;2023-05-07T01:12:15;5.00;;;4.50;;
10315;SDS011;5203;48.976;8.306;2023-05-07T01:14:41;5.67;;;4.83;;
10315;SDS011;5203;48.976;8.306;2023-05-07T01:17:08;5.00;;;4.50;;
10315;SDS011;5203;48.976;8.306;2023-05-07T01:19:34;5.23;;;4.83;;
10315;SDS011;5203;48.976;8.306;2023-05-07T01:22:04;4.80;;;4.50;;
10315;SDS011;5203;48.976;8.306;2023-05-07T01:24:33;5.43;;;5.00;;
10315;SDS011;5203;48.976;8.306;2023-05-07T01:27:01;5.03;;;4.70;;
10315;SDS011;5203;48.976;8.306;2023-05-07T01:29:27;4.97;;;4.43;;
10315;SDS011;5203;48.976;8.306;2023-05-07T01:31:53;5.03;;;4.67;;
10315;SDS011;5203;48.976;8.306;2023-05-07T01:34:21;5.00;;;4.50;;
10315;SDS011;5203;48.976;8.306;2023-05-07T01:36:48;6.30;;;4.63;;
10315;SDS011;5203;48.976;8.306;2023-05-07T01:39:14;6.10;;;4.77;;
10315;SDS011;5203;48.976;8.306;2023-05-07T01:41:40;5.60;;;5.10;;
10315;SDS011;5203;48.976;8.306;2023-05-07T01:44:08;5.10;;;4.70;;
10315;SDS011;5203;48.976;8.306;2023-05-07T01:46:35;5.17;;;4.77;;
10315;SDS011;5203;48.976;8.306;2023-05-07T01:49:00;4.80;;;4.40;;
10315;SDS011;5203;48.976;8.306;2023-05-07T01:51:26;5.33;;;4.83;;
10315;SDS011;5203;48.976;8.306;2023-05-07T01:53:52;6.03;;;4.97;;
10315;SDS011;5203;48.976;8.306;2023-05-07T01:56:18;5.60;;;5.10;;
10315;SDS011;5203;48.976;8.306;2023-05-07T01:58:45;4.97;;;4.57;;
10315;SDS011;5203;48.976;8.306;2023-05-07T02:01:13;5.07;;;4.67;;
10315;SDS011;5203;48.976;8.306;2023-05-07T02:03:39;5.03;;;4.53;;
10315;SDS011;5203;48.976;8.306;2023-05-07T02:06:05;4.77;;;4.37;;
10315;SDS011;5203;48.976;8.306;2023-05-07T02:08:31;5.07;;;4.67;;
10315;SDS011;5203;48.976;8.306;2023-05-07T02:10:56;4.97;;;4.57;;
10315;SDS011;5203;48.976;8.306;2023-05-07T02:13:22;5.07;;;4.70;;
10315;SDS011;5203;48.976;8.306;2023-05-07T02:15:49;5.07;;;4.67;;
10315;SDS011;5203;48.976;8.306;2023-05-07T02:18:15;5.00;;;4.60;;
10315;SDS011;5203;48.976;8.306;2023-05-07T02:20:42;5.67;;;5.20;;
10315;SDS011;5203;48.976;8.306;2023-05-07T02:23:08;5.40;;;4.97;;
10315;SDS011;5203;48.976;8.306;2023-05-07T02:25:34;5.87;;;4.47;;
10315;SDS011;5203;48.976;8.306;2023-05-07T02:27:59;5.10;;;4.53;;
10315;SDS011;5203;48.976;8.306;2023-05-07T02:30:25;5.27;;;4.87;;
10315;SDS011;5203;48.976;8.306;2023-05-07T02:32:51;5.03;;;4.60;;
10315;SDS011;5203;48.976;8.306;2023-05-07T02:35:16;5.63;;;5.20;;
10315;SDS011;5203;48.976;8.306;2023-05-07T02:37:42;4.70;;;4.40;;
10315;SDS011;5203;48.976;8.306;2023-05-07T02:40:08;4.70;;;4.33;;
10315;SDS011;5203;48.976;8.306;2023-05-07T02:42:34;5.40;;;4.90;;
10315;SDS011;5203;48.976;8.306;2023-05-07T02:45:00;5.20;;;4.70;;
10315;SDS011;5203;48.976;8.306;2023-05-07T02:47:25;5.03;;;4.60;;
10315;SDS011;5203;48.976;8.306;2023-05-07T02:49:54;5.53;;;5.13;;
10315;SDS011;5203;48.976;8.306;2023-05-07T02:52:20;5.37;;;4.87;;
10315;SDS011;5203;48.976;8.306;2023-05-07T02:54:46;5.00;;;4.60;;
10315;SDS011;5203;48.976;8.306;2023-05-07T02:57:12;6.63;;;4.93;;
10315;SDS011;5203;48.976;8.306;2023-05-07T02:59:38;5.63;;;5.13;;
10315;SDS011;5203;48.976;8.306;2023-05-07T03:02:03;5.30;;;4.77;;
10315;SDS011;5203;48.976;8.306;2023-05-07T03:04:29;5.33;;;4.83;;
10315;SDS011;5203;48.976;8.306;2023-05-07T03:06:55;4.60;;;4.10;;
10315;SDS011;5203;48.976;8.306;2023-05-07T03:09:20;5.20;;;4.80;;
10315;SDS011;5203;48.976;8.306;2023-05-07T03:11:46;4.90;;;4.47;;
10315;SDS011;5203;48.976;8.306;2023-05-07T03:14:12;4.97;;;4.50;;
10315;SDS011;5203;48.976;8.306;2023-05-07T03:16:37;5.33;;;4.93;;
10315;SDS011;5203;48.976;8.306;2023-05-07T03:19:03;5.07;;;4.57;;
10315;SDS011;5203;48.976;8.306;2023-05-07T03:21:29;4.83;;;4.43;;
10315;SDS011;5203;48.976;8.306;2023-05-07T03:23:55;5.40;;;4.90;;
10315;SDS011;5203;48.976;8.306;2023-05-07T03:26:21;5.37;;;4.97;;
10315;SDS011;5203;48.976;8.306;2023-05-07T03:28:47;5.13;;;4.57;;
10315;SDS011;5203;48.976;8.306;2023-05-07T03:31:13;4.33;;;4.03;;
10315;SDS011;5203;48.976;8.306;2023-05-07T03:33:42;4.60;;;4.30;;
10315;SDS011;5203;48.976;8.306;2023-05-07T03:36:18;4.77;;;4.43;;
10315;SDS011;5203;48.976;8.306;2023-05-07T03:38:44;4.50;;;4.20;;
10315;SDS011;5203;48.976;8.306;2023-05-07T03:41:09;4.90;;;4.43;;
10315;SDS011;5203;48.976;8.306;2023-05-07T03:43:35;4.40;;;4.10;;
10315;SDS011;5203;48.976;8.306;2023-05-07T03:46:01;4.30;;;4.00;;
10315;SDS011;5203;48.976;8.306;2023-05-07T03:48:26;4.57;;;4.27;;
10315;SDS011;5203;48.976;8.306;2023-05-07T03:50:52;4.97;;;4.43;;
10315;SDS011;5203;48.976;8.306;2023-05-07T03:53:18;4.70;;;4.40;;
10315;SDS011;5203;48.976;8.306;2023-05-07T03:55:43;5.10;;;4.70;;
10315;SDS011;5203;48.976;8.306;2023-05-07T03:58:09;4.30;;;4.00;;
10315;SDS011;5203;48.976;8.306;2023-05-07T04:00:34;4.57;;;4.17;;
10315;SDS011;5203;48.976;8.306;2023-05-07T04:03:03;4.57;;;4.27;;
10315;SDS011;5203;48.976;8.306;2023-05-07T04:05:30;4.37;;;4.07;;
10315;SDS011;5203;48.976;8.306;2023-05-07T04:07:57;4.70;;;4.30;;
10315;SDS011;5203;48.976;8.306;2023-05-07T04:10:23;4.10;;;3.80;;
10315;SDS011;5203;48.976;8.306;2023-05-07T04:12:49;5.10;;;4.60;;
10315;SDS011;5203;48.976;8.306;2023-05-07T04:15:14;4.73;;;4.43;;
10315;SDS011;5203;48.976;8.306;2023-05-07T04:17:40;5.17;;;4.77;;
10315;SDS011;5203;48.976;8.306;2023-05-07T04:20:08;4.90;;;4.30;;
10315;SDS011;5203;48.976;8.306;2023-05-07T04:22:35;5.77;;;4.50;;
10315;SDS011;5203;48.976;8.306;2023-05-07T04:25:01;4.77;;;4.40;;
10315;SDS011;5203;48.976;8.306;2023-05-07T04:27:27;7.23;;;4.17;;
10315;SDS011;5203;48.976;8.306;2023-05-07T04:29:53;4.40;;;4.10;;
10315;SDS011;5203;48.976;8.306;2023-05-07T04:32:23;5.40;;;4.77;;
10315;SDS011;5203;48.976;8.306;2023-05-07T04:34:50;5.03;;;4.60;;
10315;SDS011;5203;48.976;8.306;2023-05-07T04:37:15;5.30;;;4.80;;
10315;SDS011;5203;48.976;8.306;2023-05-07T04:39:42;5.10;;;4.70;;
10315;SDS011;5203;48.976;8.306;2023-05-07T04:42:07;5.57;;;4.50;;
10315;SDS011;5203;48.976;8.306;2023-05-07T04:44:34;5.70;;;5.30;;
10315;SDS011;5203;48.976;8.306;2023-05-07T04:47:01;5.17;;;4.77;;
10315;SDS011;5203;48.976;8.306;2023-05-07T04:49:27;5.10;;;4.63;;
10315;SDS011;5203;48.976;8.306;2023-05-07T04:51:53;6.60;;;4.20;;
10315;SDS011;5203;48.976;8.306;2023-05-07T04:54:18;5.00;;;4.50;;
10315;SDS011;5203;48.976;8.306;2023-05-07T04:56:44;5.60;;;5.10;;
10315;SDS011;5203;48.976;8.306;2023-05-07T04:59:10;4.90;;;4.50;;
10315;SDS011;5203;48.976;8.306;2023-05-07T05:01:35;5.37;;;4.90;;
10315;SDS011;5203;48.976;8.306;2023-05-07T05:04:01;4.40;;;4.10;;
10315;SDS011;5203;48.976;8.306;2023-05-07T05:06:28;5.03;;;4.40;;
10315;SDS011;5203;48.976;8.306;2023-05-07T05:08:54;4.70;;;4.30;;
10315;SDS011;5203;48.976;8.306;2023-05-07T05:11:20;4.97;;;4.57;;
10315;SDS011;5203;48.976;8.306;2023-05-07T05:13:46;4.50;;;4.20;;
10315;SDS011;5203;48.976;8.306;2023-05-07T05:16:14;5.27;;;4.73;;
10315;SDS011;5203;48.976;8.306;2023-05-07T05:18:40;5.47;;;5.00;;
10315;SDS011;5203;48.976;8.306;2023-05-07T05:21:06;4.90;;;4.50;;
10315;SDS011;5203;48.976;8.306;2023-05-07T05:23:31;4.70;;;4.40;;
10315;SDS011;5203;48.976;8.306;2023-05-07T05:25:57;5.00;;;4.60;;
10315;SDS011;5203;48.976;8.306;2023-05-07T05:28:23;4.63;;;4.33;;
10315;SDS011;5203;48.976;8.306;2023-05-07T05:30:49;4.57;;;4.27;;
10315;SDS011;5203;48.976;8.306;2023-05-07T05:33:15;4.97;;;4.47;;
10315;SDS011;5203;48.976;8.306;2023-05-07T05:35:41;4.67;;;4.30;;
10315;SDS011;5203;48.976;8.306;2023-05-07T05:38:07;5.23;;;4.73;;
10315;SDS011;5203;48.976;8.306;2023-05-07T05:40:32;4.60;;;4.20;;
10315;SDS011;5203;48.976;8.306;2023-05-07T05:42:58;5.47;;;4.83;;
10315;SDS011;5203;48.976;8.306;2023-05-07T05:45:24;4.83;;;4.53;;
10315;SDS011;5203;48.976;8.306;2023-05-07T05:47:50;5.10;;;4.70;;
10315;SDS011;5203;48.976;8.306;2023-05-07T05:50:16;5.23;;;4.73;;
10315;SDS011;5203;48.976;8.306;2023-05-07T05:52:41;7.20;;;4.87;;
10315;SDS011;5203;48.976;8.306;2023-05-07T05:55:07;5.20;;;4.80;;
10315;SDS011;5203;48.976;8.306;2023-05-07T05:57:33;5.27;;;4.77;;
10315;SDS011;5203;48.976;8.306;2023-05-07T05:59:59;5.00;;;4.50;;
10315;SDS011;5203;48.976;8.306;2023-05-07T06:02:25;5.10;;;4.60;;
10315;SDS011;5203;48.976;8.306;2023-05-07T06:04:51;5.17;;;4.20;;
10315;SDS011;5203;48.976;8.306;2023-05-07T06:07:17;5.13;;;4.73;;
10315;SDS011;5203;48.976;8.306;2023-05-07T06:09:43;5.17;;;4.77;;
10315;SDS011;5203;48.976;8.306;2023-05-07T06:12:09;6.00;;;5.40;;
10315;SDS011;5203;48.976;8.306;2023-05-07T06:14:34;6.37;;;5.93;;
10315;SDS011;5203;48.976;8.306;2023-05-07T06:17:00;5.67;;;5.00;;
10315;SDS011;5203;48.976;8.306;2023-05-07T06:19:26;6.10;;;5.60;;
10315;SDS011;5203;48.976;8.306;2023-05-07T06:21:53;8.47;;;7.77;;
10315;SDS011;5203;48.976;8.306;2023-05-07T06:24:19;18.37;;;16.73;;
10315;SDS011;5203;48.976;8.306;2023-05-07T06:26:44;15.20;;;13.73;;
10315;SDS011;5203;48.976;8.306;2023-05-07T06:29:10;27.67;;;24.87;;
10315;SDS011;5203;48.976;8.306;2023-05-07T06:31:35;6.63;;;5.80;;
10315;SDS011;5203;48.976;8.306;2023-05-07T06:34:01;5.30;;;4.90;;
10315;SDS011;5203;48.976;8.306;2023-05-07T06:36:27;5.40;;;4.93;;
10315;SDS011;5203;48.976;8.306;2023-05-07T06:38:53;4.63;;;4.32;;
10315;SDS011;5203;48.976;8.306;2023-05-07T06:41:19;5.07;;;4.68;;
10315;SDS011;5203;48.976;8.306;2023-05-07T06:43:45;5.47;;;5.07;;
10315;SDS011;5203;48.976;8.306;2023-05-07T06:46:11;5.70;;;5.20;;
10315;SDS011;5203;48.976;8.306;2023-05-07T06:48:36;7.85;;;5.57;;
10315;SDS011;5203;48.976;8.306;2023-05-07T06:51:02;7.38;;;6.82;;
10315;SDS011;5203;48.976;8.306;2023-05-07T06:53:28;13.63;;;12.40;;
10315;SDS011;5203;48.976;8.306;2023-05-07T06:55:55;19.02;;;17.33;;
10315;SDS011;5203;48.976;8.306;2023-05-07T06:58:21;11.35;;;10.30;;
10315;SDS011;5203;48.976;8.306;2023-05-07T07:00:47;8.55;;;6.32;;
10315;SDS011;5203;48.976;8.306;2023-05-07T07:03:12;5.68;;;5.18;;
10315;SDS011;5203;48.976;8.306;2023-05-07T07:05:39;6.75;;;6.20;;
10315;SDS011;5203;48.976;8.306;2023-05-07T07:08:06;5.53;;;5.03;;
10315;SDS011;5203;48.976;8.306;2023-05-07T07:10:31;5.20;;;4.80;;
10315;SDS011;5203;48.976;8.306;2023-05-07T07:12:57;5.10;;;4.70;;
10315;SDS011;5203;48.976;8.306;2023-05-07T07:15:22;4.60;;;4.20;;
10315;SDS011;5203;48.976;8.306;2023-05-07T07:17:50;5.13;;;4.72;;
10315;SDS011;5203;48.976;8.306;2023-05-07T07:20:16;4.45;;;4.15;;
10315;SDS011;5203;48.976;8.306;2023-05-07T07:22:41;5.15;;;4.75;;
10315;SDS011;5203;48.976;8.306;2023-05-07T07:25:07;5.30;;;4.88;;
10315;SDS011;5203;48.976;8.306;2023-05-07T07:27:33;5.47;;;5.07;;
10315;SDS011;5203;48.976;8.306;2023-05-07T07:29:59;5.68;;;5.18;;
10315;SDS011;5203;48.976;8.306;2023-05-07T07:32:25;6.25;;;5.20;;
10315;SDS011;5203;48.976;8.306;2023-05-07T07:34:51;6.50;;;5.35;;
10315;SDS011;5203;48.976;8.306;2023-05-07T07:37:16;6.03;;;5.38;;
10315;SDS011;5203;48.976;8.306;2023-05-07T07:39:42;5.30;;;4.90;;
10315;SDS011;5203;48.976;8.306;2023-05-07T07:42:07;5.93;;;5.47;;
10315;SDS011;5203;48.976;8.306;2023-05-07T07:44:33;5.93;;;5.53;;
10315;SDS011;5203;48.976;8.306;2023-05-07T07:46:59;5.57;;;5.05;;
10315;SDS011;5203;48.976;8.306;2023-05-07T07:49:25;5.53;;;5.03;;
10315;SDS011;5203;48.976;8.306;2023-05-07T07:51:51;6.28;;;5.68;;
10315;SDS011;5203;48.976;8.306;2023-05-07T07:54:17;6.25;;;5.65;;
10315;SDS011;5203;48.976;8.306;2023-05-07T07:56:42;5.90;;;5.35;;
10315;SDS011;5203;48.976;8.306;2023-05-07T07:59:08;6.10;;;5.50;;
10315;SDS011;5203;48.976;8.306;2023-05-07T08:01:33;5.97;;;5.40;;
10315;SDS011;5203;48.976;8.306;2023-05-07T08:03:59;5.20;;;4.90;;
10315;SDS011;5203;48.976;8.306;2023-05-07T08:06:25;5.85;;;5.35;;
10315;SDS011;5203;48.976;8.306;2023-05-07T08:08:51;5.30;;;4.90;;
10315;SDS011;5203;48.976;8.306;2023-05-07T08:11:17;6.93;;;5.00;;
10315;SDS011;5203;48.976;8.306;2023-05-07T08:13:43;5.45;;;5.05;;
10315;SDS011;5203;48.976;8.306;2023-05-07T08:16:09;6.95;;;5.53;;
10315;SDS011;5203;48.976;8.306;2023-05-07T08:18:35;5.72;;;5.32;;
10315;SDS011;5203;48.976;8.306;2023-05-07T08:21:00;6.07;;;5.60;;
10315;SDS011;5203;48.976;8.306;2023-05-07T08:23:26;5.45;;;5.15;;
10315;SDS011;5203;48.976;8.306;2023-05-07T08:25:53;5.18;;;4.88;;
10315;SDS011;5203;48.976;8.306;2023-05-07T08:28:18;5.20;;;4.80;;
10315;SDS011;5203;48.976;8.306;2023-05-07T08:30:46;5.32;;;4.93;;
10315;SDS011;5203;48.976;8.306;2023-05-07T08:33:12;5.03;;;4.63;;
10315;SDS011;5203;48.976;8.306;2023-05-07T08:35:37;5.57;;;4.60;;
10315;SDS011;5203;48.976;8.306;2023-05-07T08:38:03;5.57;;;5.18;;
10315;SDS011;5203;48.976;8.306;2023-05-07T08:40:29;5.80;;;5.30;;
10315;SDS011;5203;48.976;8.306;2023-05-07T08:43:01;5.15;;;4.65;;
10315;SDS011;5203;48.976;8.306;2023-05-07T08:45:27;5.28;;;4.88;;
10315;SDS011;5203;48.976;8.306;2023-05-07T08:47:58;5.03;;;4.70;;
10315;SDS011;5203;48.976;8.306;2023-05-07T08:50:26;5.25;;;4.95;;
10315;SDS011;5203;48.976;8.306;2023-05-07T08:52:52;5.32;;;4.82;;
10315;SDS011;5203;48.976;8.306;2023-05-07T08:55:18;5.15;;;4.65;;
10315;SDS011;5203;48.976;8.306;2023-05-07T08:57:44;5.55;;;5.13;;
10315;SDS011;5203;48.976;8.306;2023-05-07T09:00:10;5.47;;;5.07;;
10315;SDS011;5203;48.976;8.306;2023-05-07T09:02:36;4.40;;;4.10;;
10315;SDS011;5203;48.976;8.306;2023-05-07T09:05:02;4.68;;;4.38;;
10315;SDS011;5203;48.976;8.306;2023-05-07T09:07:28;4.82;;;4.43;;
10315;SDS011;5203;48.976;8.306;2023-05-07T09:09:55;5.20;;;4.80;;
10315;SDS011;5203;48.976;8.306;2023-05-07T09:12:22;5.32;;;4.88;;
10315;SDS011;5203;48.976;8.306;2023-05-07T09:14:48;6.25;;;5.65;;
10315;SDS011;5203;48.976;8.306;2023-05-07T09:17:15;5.20;;;4.80;;
10315;SDS011;5203;48.976;8.306;2023-05-07T09:19:41;5.43;;;4.93;;
10315;SDS011;5203;48.976;8.306;2023-05-07T09:22:08;5.70;;;5.30;;
10315;SDS011;5203;48.976;8.306;2023-05-07T09:24:34;5.80;;;5.22;;
10315;SDS011;5203;48.976;8.306;2023-05-07T09:27:01;5.97;;;5.40;;
10315;SDS011;5203;48.976;8.306;2023-05-07T09:29:27;6.25;;;5.65;;
10315;SDS011;5203;48.976;8.306;2023-05-07T09:32:05;6.32;;;5.82;;
10315;SDS011;5203;48.976;8.306;2023-05-07T09:34:31;6.10;;;5.60;;
10315;SDS011;5203;48.976;8.306;2023-05-07T09:37:00;5.53;;;5.13;;
10315;SDS011;5203;48.976;8.306;2023-05-07T09:39:38;5.80;;;5.22;;
10315;SDS011;5203;48.976;8.306;2023-05-07T09:42:14;5.50;;;5.15;;
10315;SDS011;5203;48.976;8.306;2023-05-07T09:44:40;4.93;;;4.63;;
10315;SDS011;5203;48.976;8.306;2023-05-07T09:47:08;4.88;;;4.57;;
10315;SDS011;5203;48.976;8.306;2023-05-07T09:49:35;5.45;;;5.00;;
10315;SDS011;5203;48.976;8.306;2023-05-07T09:52:03;4.93;;;4.53;;
10315;SDS011;5203;48.976;8.306;2023-05-07T09:54:35;5.78;;;5.10;;
10315;SDS011;5203;48.976;8.306;2023-05-07T09:57:03;6.10;;;5.70;;
10315;SDS011;5203;48.976;8.306;2023-05-07T09:59:29;5.93;;;5.40;;
10315;SDS011;5203;48.976;8.306;2023-05-07T10:01:57;5.18;;;4.82;;
10315;SDS011;5203;48.976;8.306;2023-05-07T10:04:27;4.70;;;4.40;;
10315;SDS011;5203;48.976;8.306;2023-05-07T10:06:53;4.90;;;4.50;;
10315;SDS011;5203;48.976;8.306;2023-05-07T10:09:20;4.15;;;3.85;;
10315;SDS011;5203;48.976;8.306;2023-05-07T10:11:48;4.47;;;4.18;;
10315;SDS011;5203;48.976;8.306;2023-05-07T10:14:15;4.85;;;4.53;;
10315;SDS011;5203;48.976;8.306;2023-05-07T10:16:41;5.40;;;4.93;;
10315;SDS011;5203;48.976;8.306;2023-05-07T10:19:07;5.45;;;5.13;;
10315;SDS011;5203;48.976;8.306;2023-05-07T10:21:37;5.15;;;4.75;;
10315;SDS011;5203;48.976;8.306;2023-05-07T10:24:19;5.38;;;4.97;;
10315;SDS011;5203;48.976;8.306;2023-05-07T10:26:50;5.40;;;5.05;;
10315;SDS011;5203;48.976;8.306;2023-05-07T10:29:18;5.40;;;4.88;;
10315;SDS011;5203;48.976;8.306;2023-05-07T10:35:01;4.88;;;4.57;;
10315;SDS011;5203;48.976;8.306;2023-05-07T10:37:29;5.00;;;4.70;;
10315;SDS011;5203;48.976;8.306;2023-05-07T10:39:55;5.30;;;4.85;;
10315;SDS011;5203;48.976;8.306;2023-05-07T10:42:22;5.47;;;5.03;;
10315;SDS011;5203;48.976;8.306;2023-05-07T10:44:48;5.72;;;5.32;;
10315;SDS011;5203;48.976;8.306;2023-05-07T10:47:15;5.75;;;5.30;;
10315;SDS011;5203;48.976;8.306;2023-05-07T10:54:39;5.95;;;5.50;;
10315;SDS011;5203;48.976;8.306;2023-05-07T11:00:03;5.95;;;5.55;;
10315;SDS011;5203;48.976;8.306;2023-05-07T11:05:28;5.60;;;5.20;;
10315;SDS011;5203;48.976;8.306;2023-05-07T11:07:59;5.72;;;5.32;;
10315;SDS011;5203;48.976;8.306;2023-05-07T11:10:48;6.00;;;5.53;;
10315;SDS011;5203;48.976;8.306;2023-05-07T11:13:15;5.95;;;5.55;;
10315;SDS011;5203;48.976;8.306;2023-05-07T11:15:45;6.10;;;5.60;;
10315;SDS011;5203;48.976;8.306;2023-05-07T11:18:16;5.85;;;5.35;;
10315;SDS011;5203;48.976;8.306;2023-05-07T11:26:02;6.20;;;5.75;;
10315;SDS011;5203;48.976;8.306;2023-05-07T11:28:30;5.90;;;5.50;;
10315;SDS011;5203;48.976;8.306;2023-05-07T11:31:01;6.03;;;5.63;;
10315;SDS011;5203;48.976;8.306;2023-05-07T11:33:27;6.28;;;5.90;;
10315;SDS011;5203;48.976;8.306;2023-05-07T11:35:54;6.15;;;5.75;;
10315;SDS011;5203;48.976;8.306;2023-05-07T11:38:20;6.60;;;6.10;;
10315;SDS011;5203;48.976;8.306;2023-05-07T11:40:52;6.32;;;5.93;;
10315;SDS011;5203;48.976;8.306;2023-05-07T11:43:20;6.78;;;6.28;;
10315;SDS011;5203;48.976;8.306;2023-05-07T11:45:46;6.43;;;5.78;;
10315;SDS011;5203;48.976;8.306;2023-05-07T11:48:16;6.40;;;6.00;;
10315;SDS011;5203;48.976;8.306;2023-05-07T11:53:17;7.20;;;6.50;;
10315;SDS011;5203;48.976;8.306;2023-05-07T11:55:44;6.88;;;6.38;;
10315;SDS011;5203;48.976;8.306;2023-05-07T11:58:10;6.88;;;6.45;;
10315;SDS011;5203;48.976;8.306;2023-05-07T12:00:37;6.45;;;6.05;;
10315;SDS011;5203;48.976;8.306;2023-05-07T12:03:03;7.20;;;6.80;;
10315;SDS011;5203;48.976;8.306;2023-05-07T12:05:30;7.00;;;6.68;;
10315;SDS011;5203;48.976;8.306;2023-05-07T12:07:58;7.75;;;7.15;;
10315;SDS011;5203;48.976;8.306;2023-05-07T12:10:24;7.32;;;6.78;;
10315;SDS011;5203;48.976;8.306;2023-05-07T12:12:50;6.80;;;6.35;;
10315;SDS011;5203;48.976;8.306;2023-05-07T12:15:16;7.05;;;6.65;;
10315;SDS011;5203;48.976;8.306;2023-05-07T12:17:42;7.03;;;6.53;;
10315;SDS011;5203;48.976;8.306;2023-05-07T12:20:09;6.90;;;6.40;;
10315;SDS011;5203;48.976;8.306;2023-05-07T12:22:35;6.32;;;5.82;;
10315;SDS011;5203;48.976;8.306;2023-05-07T12:25:01;6.43;;;6.03;;
10315;SDS011;5203;48.976;8.306;2023-05-07T12:27:28;7.10;;;6.60;;
10315;SDS011;5203;48.976;8.306;2023-05-07T12:29:53;6.72;;;6.15;;
10315;SDS011;5203;48.976;8.306;2023-05-07T12:32:20;6.80;;;6.30;;
10315;SDS011;5203;48.976;8.306;2023-05-07T12:34:49;7.18;;;6.57;;
10315;SDS011;5203;48.976;8.306;2023-05-07T12:37:16;7.18;;;6.68;;
10315;SDS011;5203;48.976;8.306;2023-05-07T12:39:48;7.03;;;6.47;;
10315;SDS011;5203;48.976;8.306;2023-05-07T12:42:28;6.85;;;6.45;;
10315;SDS011;5203;48.976;8.306;2023-05-07T12:45:11;6.53;;;6.13;;
10315;SDS011;5203;48.976;8.306;2023-05-07T12:47:38;7.30;;;6.85;;
10315;SDS011;5203;48.976;8.306;2023-05-07T12:50:07;7.78;;;7.15;;
10315;SDS011;5203;48.976;8.306;2023-05-07T12:52:33;7.53;;;7.03;;
10315;SDS011;5203;48.976;8.306;2023-05-07T12:55:05;8.05;;;7.55;;
10315;SDS011;5203;48.976;8.306;2023-05-07T12:57:42;9.95;;;9.07;;
10315;SDS011;5203;48.976;8.306;2023-05-07T13:00:11;9.23;;;8.40;;
10315;SDS011;5203;48.976;8.306;2023-05-07T13:02:38;9.50;;;8.73;;
10315;SDS011;5203;48.976;8.306;2023-05-07T13:05:05;10.25;;;9.30;;
10315;SDS011;5203;48.976;8.306;2023-05-07T13:07:30;11.18;;;10.10;;
10315;SDS011;5203;48.976;8.306;2023-05-07T13:09:56;8.88;;;8.30;;
10315;SDS011;5203;48.976;8.306;2023-05-07T13:12:22;7.63;;;7.07;;
10315;SDS011;5203;48.976;8.306;2023-05-07T13:14:47;8.27;;;7.35;;
10315;SDS011;5203;48.976;8.306;2023-05-07T13:17:13;7.07;;;6.43;;
10315;SDS011;5203;48.976;8.306;2023-05-07T13:19:39;8.25;;;7.75;;
10315;SDS011;5203;48.976;8.306;2023-05-07T13:22:05;8.35;;;7.85;;
10315;SDS011;5203;48.976;8.306;2023-05-07T13:24:30;8.98;;;8.27;;
10315;SDS011;5203;48.976;8.306;2023-05-07T13:26:56;9.35;;;8.25;;
10315;SDS011;5203;48.976;8.306;2023-05-07T13:29:22;9.32;;;8.73;;
10315;SDS011;5203;48.976;8.306;2023-05-07T13:31:56;7.97;;;7.38;;
10315;SDS011;5203;48.976;8.306;2023-05-07T13:34:22;8.65;;;7.75;;
10315;SDS011;5203;48.976;8.306;2023-05-07T13:36:48;6.50;;;6.00;;
10315;SDS011;5203;48.976;8.306;2023-05-07T13:39:13;5.88;;;5.53;;
10315;SDS011;5203;48.976;8.306;2023-05-07T13:41:39;7.57;;;6.60;;
10315;SDS011;5203;48.976;8.306;2023-05-07T13:44:05;7.28;;;6.70;;
10315;SDS011;5203;48.976;8.306;2023-05-07T13:46:30;6.50;;;6.00;;
10315;SDS011;5203;48.976;8.306;2023-05-07T13:48:56;6.50;;;5.97;;
10315;SDS011;5203;48.976;8.306;2023-05-07T13:51:22;6.72;;;6.13;;
10315;SDS011;5203;48.976;8.306;2023-05-07T13:53:48;6.20;;;5.88;;
10315;SDS011;5203;48.976;8.306;2023-05-07T13:56:14;6.80;;;5.70;;
10315;SDS011;5203;48.976;8.306;2023-05-07T13:58:39;6.85;;;6.43;;
10315;SDS011;5203;48.976;8.306;2023-05-07T14:01:05;6.53;;;5.88;;
10315;SDS011;5203;48.976;8.306;2023-05-07T14:03:31;6.72;;;6.20;;
10315;SDS011;5203;48.976;8.306;2023-05-07T14:05:58;7.10;;;6.60;;
10315;SDS011;5203;48.976;8.306;2023-05-07T14:08:26;8.07;;;7.07;;
10315;SDS011;5203;48.976;8.306;2023-05-07T14:10:52;9.10;;;8.50;;
10315;SDS011;5203;48.976;8.306;2023-05-07T14:13:18;8.48;;;7.68;;
10315;SDS011;5203;48.976;8.306;2023-05-07T14:15:43;9.02;;;8.18;;
10315;SDS011;5203;48.976;8.306;2023-05-07T14:18:14;7.78;;;6.97;;
10315;SDS011;5203;48.976;8.306;2023-05-07T14:20:40;8.48;;;7.43;;
10315;SDS011;5203;48.976;8.306;2023-05-07T14:23:06;8.27;;;7.57;;
10315;SDS011;5203;48.976;8.306;2023-05-07T14:25:31;8.18;;;7.57;;
10315;SDS011;5203;48.976;8.306;2023-05-07T14:27:57;7.75;;;7.25;;
10315;SDS011;5203;48.976;8.306;2023-05-07T14:30:23;7.53;;;6.85;;
10315;SDS011;5203;48.976;8.306;2023-05-07T14:32:49;6.70;;;6.20;;
10315;SDS011;5203;48.976;8.306;2023-05-07T14:35:15;4.85;;;4.55;;
10315;SDS011;5203;48.976;8.306;2023-05-07T14:37:41;4.07;;;3.78;;
10315;SDS011;5203;48.976;8.306;2023-05-07T14:40:07;4.32;;;3.92;;
10315;SDS011;5203;48.976;8.306;2023-05-07T14:42:33;4.32;;;3.92;;
10315;SDS011;5203;48.976;8.306;2023-05-07T14:44:59;4.30;;;3.95;;
10315;SDS011;5203;48.976;8.306;2023-05-07T14:47:25;4.13;;;2.92;;
10315;SDS011;5203;48.976;8.306;2023-05-07T14:49:50;7.35;;;3.40;;
10315;SDS011;5203;48.976;8.306;2023-05-07T14:52:16;3.40;;;3.20;;
10315;SDS011;5203;48.976;8.306;2023-05-07T14:54:42;3.58;;;3.28;;
10315;SDS011;5203;48.976;8.306;2023-05-07T14:57:08;3.65;;;3.33;;
10315;SDS011;5203;48.976;8.306;2023-05-07T14:59:35;3.40;;;3.20;;
10315;SDS011;5203;48.976;8.306;2023-05-07T15:02:02;3.88;;;3.47;;
10315;SDS011;5203;48.976;8.306;2023-05-07T15:04:29;3.47;;;3.25;;
10315;SDS011;5203;48.976;8.306;2023-05-07T15:06:55;4.55;;;3.80;;
10315;SDS011;5203;48.976;8.306;2023-05-07T15:09:21;3.92;;;3.63;;
10315;SDS011;5203;48.976;8.306;2023-05-07T15:11:47;4.20;;;3.90;;
10315;SDS011;5203;48.976;8.306;2023-05-07T15:14:15;3.75;;;3.53;;
10315;SDS011;5203;48.976;8.306;2023-05-07T15:16:41;3.60;;;3.40;;
10315;SDS011;5203;48.976;8.306;2023-05-07T15:19:06;4.32;;;3.58;;